createdAt,value
2022-07-30T00:02:10.295Z,17.19
2022-07-30T00:05:14.714Z,17.15
2022-07-30T00:08:18.639Z,17.12
2022-07-30T00:11:27.332Z,17.07
2022-07-30T00:14:32.517Z,17.08
2022-07-30T00:17:37.048Z,17.04
2022-07-30T00:20:42.776Z,17.05
2022-07-30T00:24:01.112Z,17.03
2022-07-30T00:27:06.404Z,17.07
2022-07-30T00:30:11.534Z,17.05
2022-07-30T00:33:16.014Z,17.04
2022-07-30T00:36:20.651Z,17.02
2022-07-30T00:39:25.224Z,17.01
2022-07-30T00:42:47.520Z,17.00
2022-07-30T00:45:52.063Z,17.00
2022-07-30T00:48:56.457Z,16.98
2022-07-30T00:52:00.830Z,17.01
2022-07-30T00:55:06.476Z,17.02
2022-07-30T00:58:10.936Z,16.99
2022-07-30T01:01:15.491Z,16.96
2022-07-30T01:04:19.775Z,16.96
2022-07-30T01:07:24.104Z,16.95
2022-07-30T01:10:31.766Z,16.92
2022-07-30T01:13:35.823Z,16.90
2022-07-30T01:16:42.750Z,16.91
2022-07-30T01:19:48.777Z,16.89
2022-07-30T01:23:05.702Z,16.90
2022-07-30T01:26:16.683Z,16.88
2022-07-30T01:29:21.662Z,16.86
2022-07-30T01:32:26.332Z,16.88
2022-07-30T01:35:32.468Z,16.88
2022-07-30T01:38:37.003Z,16.85
2022-07-30T01:41:44.878Z,16.90
2022-07-30T01:44:50.211Z,16.91
2022-07-30T01:47:56.144Z,16.91
2022-07-30T01:51:04.014Z,16.91
2022-07-30T01:54:09.478Z,16.96
2022-07-30T01:57:15.373Z,16.95
2022-07-30T02:00:19.748Z,16.93
2022-07-30T02:03:24.496Z,16.93
2022-07-30T02:07:06.340Z,16.93
2022-07-30T02:10:25.972Z,16.89
2022-07-30T02:13:31.238Z,16.85
2022-07-30T02:16:39.761Z,16.84
2022-07-30T02:19:45.218Z,16.90
2022-07-30T02:22:55.232Z,16.87
2022-07-30T02:26:00.779Z,16.85
2022-07-30T02:29:08.399Z,16.85
2022-07-30T02:32:19.071Z,16.82
2022-07-30T02:35:23.847Z,16.85
2022-07-30T02:38:29.104Z,16.81
2022-07-30T02:41:36.601Z,16.85
2022-07-30T02:44:42.750Z,16.84
2022-07-30T02:47:55.973Z,16.85
2022-07-30T02:51:00.698Z,16.81
2022-07-30T02:54:05.545Z,16.81
2022-07-30T02:57:10.845Z,16.88
2022-07-30T03:00:15.274Z,16.83
2022-07-30T03:03:20.548Z,16.78
2022-07-30T03:06:25.555Z,16.81
2022-07-30T03:09:51.153Z,16.79
2022-07-30T03:12:54.998Z,16.75
2022-07-30T03:16:01.191Z,16.76
2022-07-30T03:19:09.575Z,16.76
2022-07-30T03:22:14.820Z,16.72
2022-07-30T03:25:24.463Z,16.72
2022-07-30T03:28:31.720Z,16.73
2022-07-30T03:31:38.010Z,16.72
2022-07-30T03:34:42.581Z,16.71
2022-07-30T03:37:48.780Z,16.71
2022-07-30T03:40:53.346Z,16.71
2022-07-30T03:43:57.671Z,16.71
2022-07-30T03:47:05.570Z,16.75
2022-07-30T03:50:10.570Z,16.74
2022-07-30T03:53:15.018Z,16.71
2022-07-30T03:56:19.335Z,16.71
2022-07-30T03:59:23.900Z,16.67
2022-07-30T04:02:27.945Z,16.66
2022-07-30T04:05:41.527Z,16.65
2022-07-30T04:08:46.183Z,16.73
2022-07-30T04:11:50.822Z,16.66
2022-07-30T04:14:57.416Z,16.68
2022-07-30T04:18:04.420Z,16.71
2022-07-30T04:21:16.962Z,16.70
2022-07-30T04:24:22.433Z,16.69
2022-07-30T04:27:27.618Z,16.71
2022-07-30T04:30:34.815Z,16.74
2022-07-30T04:33:39.380Z,16.77
2022-07-30T04:36:44.161Z,16.73
2022-07-30T04:39:54.951Z,16.79
2022-07-30T04:42:59.344Z,16.77
2022-07-30T04:46:04.074Z,16.76
2022-07-30T04:49:08.842Z,16.73
2022-07-30T04:52:14.079Z,16.77
2022-07-30T04:55:18.808Z,16.76
2022-07-30T04:58:23.617Z,16.76
2022-07-30T05:01:40.439Z,16.84
2022-07-30T05:04:46.142Z,16.81
2022-07-30T05:07:51.065Z,16.79
2022-07-30T05:10:55.946Z,16.82
2022-07-30T05:14:00.218Z,16.85
2022-07-30T05:17:05.112Z,16.80
2022-07-30T05:20:10.028Z,16.88
2022-07-30T05:23:14.464Z,16.85
2022-07-30T05:26:20.573Z,16.91
2022-07-30T05:29:24.630Z,16.91
2022-07-30T05:32:28.690Z,16.90
2022-07-30T05:35:33.197Z,16.92
2022-07-30T05:38:38.034Z,16.95
2022-07-30T05:41:42.218Z,16.95
2022-07-30T05:44:46.572Z,16.95
2022-07-30T05:47:51.040Z,16.97
2022-07-30T05:50:55.506Z,16.98
2022-07-30T05:54:00.247Z,16.99
2022-07-30T05:57:04.938Z,17.04
2022-07-30T06:00:11.265Z,17.06
2022-07-30T06:03:15.619Z,17.07
2022-07-30T06:06:23.131Z,17.07
2022-07-30T06:09:36.964Z,17.14
2022-07-30T06:12:42.581Z,17.11
2022-07-30T06:15:46.794Z,17.18
2022-07-30T06:18:51.152Z,17.14
2022-07-30T06:22:01.630Z,17.14
2022-07-30T06:25:11.674Z,17.16
2022-07-30T06:31:42.590Z,17.18
2022-07-30T06:34:47.010Z,17.19
2022-07-30T06:37:58.812Z,17.21
2022-07-30T06:41:11.538Z,17.29
2022-07-30T06:44:16.221Z,17.33
2022-07-30T06:47:26.241Z,17.41
2022-07-30T06:50:30.747Z,17.47
2022-07-30T06:53:35.865Z,17.49
2022-07-30T06:56:47.496Z,17.54
2022-07-30T06:59:56.341Z,17.54
2022-07-30T07:03:01.760Z,17.63
2022-07-30T07:06:06.341Z,17.70
2022-07-30T07:09:10.630Z,17.72
2022-07-30T07:12:14.936Z,17.77
2022-07-30T07:15:19.474Z,17.90
2022-07-30T07:18:26.932Z,17.95
2022-07-30T07:21:31.214Z,18.00
2022-07-30T07:24:35.680Z,18.00
2022-07-30T07:27:39.898Z,17.91
2022-07-30T07:30:44.743Z,17.99
2022-07-30T07:33:49.251Z,18.01
2022-07-30T07:36:53.650Z,18.02
2022-07-30T07:39:58.343Z,18.02
2022-07-30T07:43:02.758Z,17.94
2022-07-30T07:46:07.653Z,18.01
2022-07-30T07:49:12.131Z,18.11
2022-07-30T07:52:17.730Z,18.32
2022-07-30T07:55:23.069Z,18.53
2022-07-30T07:58:29.477Z,18.78
2022-07-30T08:01:35.892Z,18.88
2022-07-30T08:04:40.321Z,19.03
2022-07-30T08:07:45.382Z,19.14
2022-07-30T08:10:49.694Z,19.23
2022-07-30T08:13:54.292Z,19.37
2022-07-30T08:16:58.836Z,19.45
2022-07-30T08:20:05.070Z,19.49
2022-07-30T08:23:09.183Z,19.47
2022-07-30T08:26:13.533Z,19.49
2022-07-30T08:29:17.934Z,19.51
2022-07-30T08:32:22.511Z,19.65
2022-07-30T08:35:26.854Z,19.87
2022-07-30T08:38:31.093Z,19.91
2022-07-30T08:41:36.660Z,19.86
2022-07-30T08:44:41.239Z,19.84
2022-07-30T08:47:46.827Z,19.77
2022-07-30T08:50:51.233Z,19.74
2022-07-30T08:53:57.780Z,19.79
2022-07-30T08:57:05.362Z,19.74
2022-07-30T09:00:10.925Z,19.83
2022-07-30T09:03:15.281Z,19.84
2022-07-30T09:06:19.584Z,19.91
2022-07-30T09:09:24.085Z,20.00
2022-07-30T09:12:32.359Z,20.01
2022-07-30T09:15:38.810Z,20.03
2022-07-30T09:18:44.550Z,19.99
2022-07-30T09:21:59.730Z,19.97
2022-07-30T09:25:04.346Z,19.88
2022-07-30T09:28:16.122Z,19.94
2022-07-30T09:31:22.343Z,19.85
2022-07-30T09:34:37.262Z,19.84
2022-07-30T09:37:41.867Z,19.70
2022-07-30T09:40:57.723Z,19.75
2022-07-30T09:44:04.604Z,19.66
2022-07-30T09:47:09.040Z,19.60
2022-07-30T09:50:17.934Z,19.55
2022-07-30T09:53:36.130Z,19.59
2022-07-30T09:56:54.047Z,19.63
2022-07-30T10:00:01.278Z,19.55
2022-07-30T10:03:21.688Z,19.47
2022-07-30T10:06:41.911Z,19.58
2022-07-30T10:09:48.059Z,19.69
2022-07-30T10:13:01.225Z,19.63
2022-07-30T10:16:10.254Z,19.79
2022-07-30T10:19:18.011Z,19.80
2022-07-30T10:22:24.467Z,19.95
2022-07-30T10:25:30.675Z,20.05
2022-07-30T10:28:38.788Z,20.10
2022-07-30T10:31:49.243Z,20.15
2022-07-30T10:34:56.829Z,20.17
2022-07-30T10:38:01.819Z,20.18
2022-07-30T10:41:08.712Z,20.20
2022-07-30T10:44:41.277Z,20.19
2022-07-30T10:47:49.272Z,20.11
2022-07-30T10:50:57.638Z,20.03
2022-07-30T10:54:01.784Z,19.99
2022-07-30T10:57:23.007Z,19.91
2022-07-30T11:00:59.596Z,19.77
2022-07-30T11:04:21.744Z,19.68
2022-07-30T11:07:31.450Z,19.58
2022-07-30T11:10:40.244Z,19.54
2022-07-30T11:13:56.289Z,19.50
2022-07-30T11:17:00.934Z,19.53
2022-07-30T11:20:05.838Z,19.59
2022-07-30T11:23:19.288Z,19.55
2022-07-30T11:26:38.678Z,19.57
2022-07-30T11:29:50.585Z,19.54
2022-07-30T11:33:16.063Z,19.54
2022-07-30T11:36:20.602Z,19.58
2022-07-30T11:40:06.645Z,19.64
2022-07-30T11:43:36.336Z,19.64
2022-07-30T11:46:48.552Z,19.72
2022-07-30T11:49:53.008Z,19.84
2022-07-30T11:52:59.940Z,19.91
2022-07-30T11:56:04.394Z,20.09
2022-07-30T11:59:08.861Z,20.15
2022-07-30T12:02:13.366Z,20.22
2022-07-30T12:05:25.878Z,20.31
2022-07-30T12:08:35.231Z,20.50
2022-07-30T12:11:40.266Z,20.81
2022-07-30T12:14:44.367Z,20.78
2022-07-30T12:17:51.418Z,20.79
2022-07-30T12:21:15.729Z,20.75
2022-07-30T12:24:25.254Z,20.95
2022-07-30T12:27:29.748Z,21.07
2022-07-30T12:30:34.298Z,21.40
2022-07-30T12:33:42.098Z,21.47
2022-07-30T12:36:46.579Z,21.47
2022-07-30T12:40:14.330Z,21.29
2022-07-30T12:43:55.358Z,21.28
2022-07-30T12:47:00.185Z,21.27
2022-07-30T12:50:17.539Z,21.13
2022-07-30T12:53:29.413Z,21.10
2022-07-30T12:56:34.812Z,21.08
2022-07-30T12:59:39.140Z,21.15
2022-07-30T13:02:43.512Z,21.31
2022-07-30T13:05:50.623Z,21.20
2022-07-30T13:08:59.963Z,21.23
2022-07-30T13:12:05.162Z,21.30
2022-07-30T13:15:16.906Z,21.30
2022-07-30T13:18:21.465Z,21.32
2022-07-30T13:21:25.822Z,21.36
2022-07-30T13:24:30.390Z,21.23
2022-07-30T13:27:35.112Z,21.21
2022-07-30T13:30:39.520Z,21.15
2022-07-30T13:33:44.118Z,21.07
2022-07-30T13:36:48.513Z,21.03
2022-07-30T13:39:52.910Z,21.08
2022-07-30T13:42:57.145Z,21.14
2022-07-30T13:46:03.113Z,21.15
2022-07-30T13:49:07.469Z,21.14
2022-07-30T13:52:11.833Z,21.17
2022-07-30T13:55:16.325Z,21.29
2022-07-30T13:58:20.658Z,21.40
2022-07-30T14:01:24.967Z,21.62
2022-07-30T14:04:29.753Z,21.67
2022-07-30T14:07:34.789Z,21.60
2022-07-30T14:10:40.273Z,21.59
2022-07-30T14:13:45.718Z,21.66
2022-07-30T14:16:58.154Z,21.67
2022-07-30T14:20:02.507Z,21.81
2022-07-30T14:23:06.912Z,21.95
2022-07-30T14:26:11.369Z,22.03
2022-07-30T14:29:15.726Z,22.09
2022-07-30T14:32:20.127Z,22.07
2022-07-30T14:35:27.551Z,22.08
2022-07-30T14:38:31.977Z,22.05
2022-07-30T14:41:38.573Z,21.97
2022-07-30T14:44:43.411Z,21.90
2022-07-30T14:47:47.354Z,21.80
2022-07-30T14:51:12.339Z,21.71
2022-07-30T14:54:16.922Z,21.68
2022-07-30T14:57:21.137Z,21.68
2022-07-30T15:00:25.435Z,21.60
2022-07-30T15:03:29.899Z,21.57
2022-07-30T15:06:34.332Z,21.48
2022-07-30T15:09:38.742Z,21.45
2022-07-30T15:12:43.235Z,21.37
2022-07-30T15:15:48.499Z,21.31
2022-07-30T15:18:52.667Z,21.35
2022-07-30T15:21:58.230Z,21.36
2022-07-30T15:25:02.763Z,21.43
2022-07-30T15:28:07.095Z,21.42
2022-07-30T15:31:11.469Z,21.42
2022-07-30T15:34:16.070Z,21.39
2022-07-30T15:37:20.265Z,21.44
2022-07-30T15:40:24.795Z,21.45
2022-07-30T15:43:29.263Z,21.44
2022-07-30T15:46:33.613Z,21.46
2022-07-30T15:49:37.802Z,21.49
2022-07-30T15:52:43.425Z,21.44
2022-07-30T15:55:47.809Z,21.40
2022-07-30T15:58:52.574Z,21.39
2022-07-30T16:01:56.574Z,21.36
2022-07-30T16:05:01.148Z,21.38
2022-07-30T16:08:05.897Z,21.37
2022-07-30T16:11:11.027Z,21.36
2022-07-30T16:14:16.304Z,21.34
2022-07-30T16:17:20.518Z,21.38
2022-07-30T16:20:24.690Z,21.47
2022-07-30T16:23:36.754Z,21.50
2022-07-30T16:26:41.020Z,21.61
2022-07-30T16:29:45.363Z,21.75
2022-07-30T16:32:51.528Z,21.76
2022-07-30T16:35:57.102Z,21.86
2022-07-30T16:39:01.633Z,21.86
2022-07-30T16:42:06.243Z,21.84
2022-07-30T16:45:10.725Z,21.79
2022-07-30T16:48:14.883Z,21.81
2022-07-30T16:51:19.274Z,21.83
2022-07-30T16:54:23.742Z,21.75
2022-07-30T16:57:28.113Z,21.71
2022-07-30T17:00:32.473Z,21.61
2022-07-30T17:03:36.846Z,21.56
2022-07-30T17:06:42.538Z,21.53
2022-07-30T17:09:51.799Z,21.70
2022-07-30T17:12:56.972Z,21.71
2022-07-30T17:16:01.983Z,21.70
2022-07-30T17:19:09.392Z,21.69
2022-07-30T17:22:14.314Z,21.70
2022-07-30T17:25:18.530Z,21.66
2022-07-30T17:28:27.058Z,21.60
2022-07-30T17:31:31.659Z,21.47
2022-07-30T17:34:35.713Z,21.37
2022-07-30T17:37:39.964Z,21.31
2022-07-30T17:40:44.508Z,21.24
2022-07-30T17:43:48.829Z,21.23
2022-07-30T17:46:53.415Z,21.29
2022-07-30T17:49:57.409Z,21.32
2022-07-30T17:53:03.527Z,21.30
2022-07-30T17:56:08.999Z,21.27
2022-07-30T17:59:32.058Z,21.24
2022-07-30T18:02:36.739Z,21.21
2022-07-30T18:05:41.031Z,21.17
2022-07-30T18:08:45.101Z,21.14
2022-07-30T18:11:49.387Z,21.12
2022-07-30T18:14:53.738Z,21.12
2022-07-30T18:17:58.116Z,21.11
2022-07-30T18:21:02.460Z,21.06
2022-07-30T18:24:06.618Z,21.01
2022-07-30T18:27:12.147Z,20.93
2022-07-30T18:30:16.376Z,20.82
2022-07-30T18:33:21.254Z,20.71
2022-07-30T18:36:25.605Z,20.57
2022-07-30T18:39:29.799Z,20.49
2022-07-30T18:42:34.573Z,20.37
2022-07-30T18:45:39.190Z,20.20
2022-07-30T18:48:43.694Z,20.13
2022-07-30T18:51:48.261Z,19.99
2022-07-30T18:54:52.842Z,19.88
2022-07-30T18:57:57.106Z,19.83
2022-07-30T19:01:01.500Z,19.69
2022-07-30T19:04:06.618Z,19.59
2022-07-30T19:07:11.065Z,19.54
2022-07-30T19:10:16.864Z,19.45
2022-07-30T19:13:23.508Z,19.44
2022-07-30T19:16:27.507Z,19.34
2022-07-30T19:19:31.929Z,19.28
2022-07-30T19:22:36.630Z,19.23
2022-07-30T19:25:41.097Z,19.19
2022-07-30T19:28:45.478Z,19.09
2022-07-30T19:31:49.819Z,18.99
2022-07-30T19:34:54.673Z,18.99
2022-07-30T19:37:59.223Z,18.92
2022-07-30T19:41:03.560Z,18.75
2022-07-30T19:44:10.442Z,18.69
2022-07-30T19:47:15.886Z,18.72
2022-07-30T19:50:20.621Z,18.62
2022-07-30T19:53:34.059Z,18.61
2022-07-30T19:56:39.043Z,18.55
2022-07-30T19:59:59.646Z,18.48
2022-07-30T20:03:11.419Z,18.44
2022-07-30T20:06:19.222Z,18.41
2022-07-30T20:09:25.023Z,18.40
2022-07-30T20:12:29.851Z,18.42
2022-07-30T20:15:34.960Z,18.38
2022-07-30T20:18:39.668Z,18.46
2022-07-30T20:22:06.981Z,18.48
2022-07-30T20:25:08.863Z,18.48
2022-07-30T20:28:13.253Z,18.50
2022-07-30T20:31:18.064Z,18.48
2022-07-30T20:34:23.938Z,18.45
2022-07-30T20:37:30.630Z,18.41
2022-07-30T20:40:34.946Z,18.36
2022-07-30T20:43:51.792Z,18.33
2022-07-30T20:46:56.692Z,18.27
2022-07-30T20:50:05.606Z,18.25
2022-07-30T20:53:14.584Z,18.18
2022-07-30T20:56:20.103Z,18.17
2022-07-30T20:59:24.987Z,18.16
2022-07-30T21:02:29.128Z,18.15
2022-07-30T21:05:35.534Z,18.10
2022-07-30T21:08:41.888Z,18.07
2022-07-30T21:11:50.501Z,18.02
2022-07-30T21:14:55.983Z,17.99
2022-07-30T21:18:01.726Z,17.95
2022-07-30T21:21:06.682Z,17.93
2022-07-30T21:24:14.472Z,17.86
2022-07-30T21:27:19.214Z,17.82
2022-07-30T21:30:24.283Z,17.81
2022-07-30T21:33:31.511Z,17.78
2022-07-30T21:36:36.358Z,17.74
2022-07-30T21:39:42.368Z,17.73
2022-07-30T21:42:48.396Z,17.70
2022-07-30T21:45:54.976Z,17.69
2022-07-30T21:49:00.443Z,17.66
2022-07-30T21:52:08.414Z,17.63
2022-07-30T21:55:13.701Z,17.59
2022-07-30T21:58:25.741Z,17.57
2022-07-30T22:01:33.031Z,17.56
2022-07-30T22:04:42.140Z,17.55
2022-07-30T22:07:51.882Z,17.53
2022-07-30T22:10:57.505Z,17.53
2022-07-30T22:14:01.877Z,17.51
2022-07-30T22:17:06.213Z,17.49
2022-07-30T22:20:28.406Z,17.46
2022-07-30T22:23:33.059Z,17.45
2022-07-30T22:26:37.545Z,17.44
2022-07-30T22:29:43.050Z,17.42
2022-07-30T22:32:48.952Z,17.39
2022-07-30T22:35:52.970Z,17.39
2022-07-30T22:42:23.934Z,17.38
2022-07-30T22:45:44.902Z,17.37
2022-07-30T22:48:52.623Z,17.34
2022-07-30T22:52:04.881Z,17.34
2022-07-30T22:55:22.416Z,17.32
2022-07-30T22:58:28.780Z,17.30
2022-07-30T23:01:33.702Z,17.28
2022-07-30T23:04:38.039Z,17.25
2022-07-30T23:07:42.771Z,17.23
2022-07-30T23:10:47.030Z,17.22
2022-07-30T23:12:31.286Z,17.37
2022-07-30T23:13:53.923Z,17.20
2022-07-30T23:16:58.438Z,17.18
2022-07-30T23:20:04.297Z,17.16
2022-07-30T23:23:08.571Z,17.13
2022-07-30T23:26:12.627Z,17.11
2022-07-30T23:29:16.841Z,17.10
2022-07-30T23:32:20.946Z,17.07
2022-07-30T23:35:25.224Z,17.05
2022-07-30T23:38:29.575Z,17.02
2022-07-30T23:41:33.979Z,16.98
2022-07-30T23:44:38.650Z,16.96
2022-07-30T23:47:56.536Z,16.98
2022-07-30T23:51:07.640Z,16.98
2022-07-30T23:54:12.051Z,16.95
2022-07-30T23:57:16.446Z,16.94
